Time;durP1;ratioP1;P1;durP2;ratioP2;P2;SDS_P1;SDS_P2;PMS_P1;PMS_P2;Temp;Humidity;BMP_temperature;BMP_pressure;BME280_temperature;BME280_humidity;BME280_pressure;Samples;Min_cycle;Max_cycle;Signal;HPM_P1;HPM_P2
2022/11/10 00:01:36;;;;;;;;;;;;;;;13.38;73.22;99506.06;5264492;28;20432;-73
2022/11/10 00:04:45;;;;;;;;;;;;;;;13.48;72.84;99506.03;5254711;28;19924;-73
2022/11/10 00:07:54;;;;;;;;;;;;;;;13.56;72.84;99522.91;5251043;28;19935;-73
2022/11/10 00:11:06;;;;;;;;;;;;;;;13.55;73.00;99523.06;5275616;28;19930;-71
2022/11/10 00:17:44;;;;;;;;;;;;;;;13.46;72.91;99529.28;5252555;28;19936;-74
2022/11/10 00:20:52;;;;;;;;;;;;;;;13.50;73.04;99534.16;5262949;28;19924;-73
2022/11/10 00:24:02;;;;;;;;;;;;;;;13.53;72.83;99533.88;5263458;28;19947;-72
2022/11/10 00:27:12;;;;;;;;;;;;;;;13.47;72.36;99528.31;5252299;28;19931;-72
2022/11/10 00:30:21;;;;;;;;;;;;;;;13.51;72.98;99532.34;5259726;28;20439;-73
2022/11/10 00:33:30;;;;;;;;;;;;;;;13.48;72.76;99527.34;5257002;28;19939;-72
2022/11/10 00:36:39;;;;;;;;;;;;;;;13.41;73.03;99532.41;5255361;28;19951;-72
2022/11/10 00:39:48;;;;;;;;;;;;;;;13.38;72.58;99535.38;5261625;28;19924;-72
2022/11/10 00:42:56;;;;;;;;;;;;;;;13.30;73.55;99543.25;5263945;28;19932;-73
2022/11/10 00:46:05;;;;;;;;;;;;;;;13.24;73.80;99547.34;5258635;28;20396;-73
2022/11/10 00:49:14;;;;;;;;;;;;;;;13.36;73.29;99548.81;5259455;28;19935;-73
2022/11/10 00:52:23;;;;;;;;;;;;;;;13.27;72.87;99552.38;5265307;28;19998;-71
2022/11/10 00:55:32;;;;;;;;;;;;;;;13.10;73.85;99561.94;5260305;28;19953;-72
2022/11/10 00:58:41;;;;;;;;;;;;;;;13.25;72.95;99548.19;5261387;28;19935;-71
2022/11/10 01:01:50;;;;;;;;;;;;;;;13.20;73.00;99559.25;5256013;28;19986;-72
2022/11/10 01:04:59;;;;;;;;;;;;;;;13.09;73.21;99557.63;5254321;28;19939;-72
2022/11/10 01:08:08;;;;;;;;;;;;;;;13.15;73.50;99566.84;5259677;28;19939;-71
2022/11/10 01:11:19;;;;;;;;;;;;;;;13.21;73.44;99576.06;5268635;28;19935;-71
2022/11/10 01:14:28;;;;;;;;;;;;;;;13.17;73.23;99587.00;5263206;28;20002;-72
2022/11/10 01:17:37;;;;;;;;;;;;;;;13.11;73.51;99586.75;5257530;28;19932;-71
2022/11/10 01:20:50;;;;;;;;;;;;;;;13.14;72.96;99587.31;5271365;28;20331;-72
2022/11/10 01:23:59;;;;;;;;;;;;;;;13.08;73.39;99593.22;5258273;28;19939;-72
2022/11/10 01:27:08;;;;;;;;;;;;;;;13.01;73.86;99602.75;5257875;28;19983;-72
2022/11/10 01:30:17;;;;;;;;;;;;;;;13.10;73.45;99595.72;5262934;28;19934;-72
2022/11/10 01:33:26;;;;;;;;;;;;;;;13.01;73.87;99599.25;5261794;28;20417;-72
2022/11/10 01:36:35;;;;;;;;;;;;;;;13.05;73.35;99603.31;5258263;28;19935;-72
2022/11/10 01:39:44;;;;;;;;;;;;;;;13.05;73.28;99608.66;5266353;28;20321;-71
2022/11/10 01:42:54;;;;;;;;;;;;;;;13.11;73.00;99613.34;5263526;28;20792;-72
2022/11/10 01:46:04;;;;;;;;;;;;;;;13.12;72.89;99610.56;5257928;28;20026;-72
2022/11/10 01:49:14;;;;;;;;;;;;;;;12.91;73.78;99610.78;5259125;28;19971;-71
2022/11/10 01:52:23;;;;;;;;;;;;;;;13.08;73.45;99609.19;5264888;28;19935;-72
2022/11/10 01:55:33;;;;;;;;;;;;;;;12.90;72.71;99611.75;5263734;28;19936;-72
2022/11/10 01:58:46;;;;;;;;;;;;;;;12.93;73.40;99621.25;5257165;28;20393;-71
2022/11/10 02:02:01;;;;;;;;;;;;;;;12.96;73.35;99620.97;5265013;28;19938;-72
2022/11/10 02:05:09;;;;;;;;;;;;;;;12.93;73.21;99630.09;5253909;28;19970;-72
2022/11/10 02:08:20;;;;;;;;;;;;;;;12.93;72.77;99639.91;5281626;27;19976;-72
2022/11/10 02:11:29;;;;;;;;;;;;;;;12.97;73.07;99638.63;5265283;28;20353;-71
2022/11/10 02:14:38;;;;;;;;;;;;;;;12.91;72.64;99634.72;5258769;28;20349;-71
2022/11/10 02:17:47;;;;;;;;;;;;;;;12.81;73.34;99643.69;5254744;28;20417;-72
2022/11/10 02:20:56;;;;;;;;;;;;;;;12.81;73.13;99641.03;5268405;28;19934;-71
2022/11/10 02:24:06;;;;;;;;;;;;;;;12.73;72.96;99646.25;5253102;28;19936;-71
2022/11/10 02:27:15;;;;;;;;;;;;;;;12.74;73.96;99653.22;5257393;28;19936;-71
2022/11/10 02:30:24;;;;;;;;;;;;;;;12.80;72.86;99653.50;5260059;28;19955;-72
2022/11/10 02:33:36;;;;;;;;;;;;;;;12.74;73.49;99663.88;5260106;28;19928;-72
2022/11/10 02:36:45;;;;;;;;;;;;;;;12.72;72.90;99665.84;5257339;28;19953;-72
2022/11/10 02:39:54;;;;;;;;;;;;;;;12.68;73.10;99666.13;5262989;28;20104;-71
2022/11/10 02:43:08;;;;;;;;;;;;;;;12.66;73.03;99670.75;5261867;28;20385;-72
2022/11/10 02:46:17;;;;;;;;;;;;;;;12.56;73.15;99675.22;5254188;28;19978;-73
2022/11/10 02:49:26;;;;;;;;;;;;;;;12.49;73.16;99671.44;5256896;28;19931;-72
2022/11/10 02:52:34;;;;;;;;;;;;;;;12.45;73.36;99676.22;5267250;28;19969;-74
2022/11/10 02:55:43;;;;;;;;;;;;;;;12.49;72.91;99679.44;5258324;28;19925;-71
2022/11/10 02:58:52;;;;;;;;;;;;;;;12.44;73.42;99681.66;5255485;28;19931;-72
2022/11/10 03:02:01;;;;;;;;;;;;;;;12.42;73.26;99684.47;5256078;28;19951;-72
2022/11/10 03:05:10;;;;;;;;;;;;;;;12.39;73.42;99697.19;5252744;28;19931;-72
2022/11/10 03:08:19;;;;;;;;;;;;;;;12.40;73.67;99706.84;5254177;28;19929;-72
2022/11/10 03:11:27;;;;;;;;;;;;;;;12.35;72.91;99701.09;5267566;28;19935;-72
2022/11/10 03:14:40;;;;;;;;;;;;;;;12.27;73.27;99706.28;5256587;28;20305;-72
2022/11/10 03:17:48;;;;;;;;;;;;;;;12.19;72.90;99702.47;5253755;28;19976;-74
2022/11/10 03:20:57;;;;;;;;;;;;;;;12.09;73.18;99709.59;5267435;28;20064;-73
2022/11/10 03:24:06;;;;;;;;;;;;;;;11.99;73.32;99719.38;5256839;28;19928;-72
2022/11/10 03:27:15;;;;;;;;;;;;;;;11.92;73.10;99720.84;5252315;28;19945;-72
2022/11/10 03:30:24;;;;;;;;;;;;;;;11.92;73.80;99726.16;5263801;28;19939;-72
2022/11/10 03:33:34;;;;;;;;;;;;;;;11.88;73.33;99719.44;5260761;28;19924;-72
2022/11/10 03:36:43;;;;;;;;;;;;;;;11.92;73.78;99720.84;5254515;28;20345;-72
2022/11/10 03:39:51;;;;;;;;;;;;;;;11.84;73.47;99728.63;5254716;28;20401;-72
2022/11/10 03:43:00;;;;;;;;;;;;;;;11.71;73.72;99727.03;5261999;28;20293;-73
2022/11/10 03:46:08;;;;;;;;;;;;;;;11.70;73.45;99730.69;5257540;28;19935;-72
2022/11/10 03:49:17;;;;;;;;;;;;;;;11.62;73.35;99733.16;5259990;28;19974;-74
2022/11/10 03:52:26;;;;;;;;;;;;;;;11.58;73.13;99734.38;5264634;28;19947;-73
2022/11/10 03:55:34;;;;;;;;;;;;;;;11.58;73.39;99745.00;5258686;28;19947;-73
2022/11/10 03:58:43;;;;;;;;;;;;;;;11.50;73.68;99742.19;5256245;28;19967;-72
2022/11/10 04:01:52;;;;;;;;;;;;;;;11.59;74.59;99746.72;5254941;28;19933;-74
2022/11/10 04:15:43;;;;;;;;;;;;;;;11.57;74.48;99779.69;5273371;28;20569;-73
2022/11/10 04:18:52;;;;;;;;;;;;;;;11.58;74.03;99779.53;5257307;28;19982;-72
2022/11/10 04:22:01;;;;;;;;;;;;;;;11.49;74.52;99788.31;5259037;28;19932;-73
2022/11/10 04:25:10;;;;;;;;;;;;;;;11.48;73.41;99790.09;5269689;28;20024;-73
2022/11/10 04:28:19;;;;;;;;;;;;;;;11.32;74.26;99792.38;5256595;28;19974;-72
2022/11/10 04:31:29;;;;;;;;;;;;;;;11.40;73.99;99791.75;5264802;28;19946;-74
2022/11/10 04:34:38;;;;;;;;;;;;;;;11.40;73.38;99783.78;5264351;28;19997;-72
2022/11/10 04:37:46;;;;;;;;;;;;;;;11.36;74.09;99796.47;5262275;28;19931;-72
2022/11/10 04:40:55;;;;;;;;;;;;;;;11.28;73.68;99805.06;5260586;28;19932;-73
2022/11/10 04:44:04;;;;;;;;;;;;;;;11.18;73.63;99812.09;5261124;28;19924;-73
2022/11/10 04:47:13;;;;;;;;;;;;;;;11.14;73.29;99825.78;5293753;22;20373;-75
2022/11/10 04:50:22;;;;;;;;;;;;;;;11.08;73.50;99827.13;5259231;28;19931;-76
2022/11/10 04:53:31;;;;;;;;;;;;;;;11.12;73.65;99819.75;5251994;28;19929;-76
2022/11/10 04:56:40;;;;;;;;;;;;;;;11.01;73.72;99820.63;5244134;28;19980;-74
2022/11/10 04:59:48;;;;;;;;;;;;;;;10.97;73.69;99825.34;5237654;28;19955;-75
2022/11/10 05:02:58;;;;;;;;;;;;;;;10.71;73.69;99800.94;5240666;28;19982;-75
2022/11/10 05:06:07;;;;;;;;;;;;;;;10.88;73.93;99842.00;5237590;28;19935;-75
2022/11/10 05:09:16;;;;;;;;;;;;;;;10.89;73.61;99856.97;5237913;28;19936;-76
2022/11/10 05:12:25;;;;;;;;;;;;;;;10.83;73.82;99849.53;5237870;28;19964;-76
2022/11/10 05:15:34;;;;;;;;;;;;;;;10.79;73.63;99863.97;5239428;28;19928;-75
2022/11/10 05:18:43;;;;;;;;;;;;;;;10.78;73.45;99868.44;5237486;28;20098;-75
2022/11/10 05:21:52;;;;;;;;;;;;;;;10.76;73.94;99867.75;5240597;28;19973;-76
2022/11/10 05:25:01;;;;;;;;;;;;;;;10.77;74.15;99868.59;5236716;28;19959;-76
2022/11/10 05:28:12;;;;;;;;;;;;;;;10.65;73.91;99872.22;5246568;28;19939;-75
2022/11/10 05:31:21;;;;;;;;;;;;;;;10.60;73.85;99871.75;5241851;28;20062;-74
2022/11/10 05:34:29;;;;;;;;;;;;;;;10.60;73.97;99875.25;5235754;28;20302;-75
2022/11/10 05:37:39;;;;;;;;;;;;;;;10.58;73.48;99871.84;5238379;28;19998;-77
2022/11/10 05:40:47;;;;;;;;;;;;;;;10.56;74.13;99865.81;5235777;28;19978;-75
2022/11/10 05:43:56;;;;;;;;;;;;;;;10.51;74.09;99875.97;5241363;28;19928;-76
2022/11/10 05:47:07;;;;;;;;;;;;;;;10.53;74.52;99874.06;5239416;28;20428;-75
2022/11/10 05:50:43;;;;;;;14.30;3.90;;;;;;;10.44;74.32;99851.75;5300060;27;20355;-75
2022/11/10 05:53:51;;;;;;;13.25;4.00;;;;;;;10.49;74.00;99865.47;5289171;28;20524;-75
2022/11/10 05:57:00;;;;;;;13.23;4.53;;;;;;;10.44;74.30;99870.31;5276072;28;20050;-76
2022/11/10 06:00:10;;;;;;;15.32;4.53;;;;;;;10.47;74.13;99885.13;5286492;28;20059;-72
2022/11/10 06:03:19;;;;;;;8.68;4.60;;;;;;;10.34;73.81;99883.44;5283899;28;20104;-73
2022/11/10 06:06:29;;;;;;;8.00;4.05;;;;;;;10.32;74.00;99903.91;5271563;28;20051;-72
2022/11/10 06:09:38;;;;;;;13.50;5.03;;;;;;;10.32;74.31;99924.28;5289137;28;20079;-70
2022/11/10 06:12:47;;;;;;;15.43;4.95;;;;;;;10.17;73.91;99912.22;5289196;28;20047;-71
2022/11/10 06:15:56;;;;;;;10.90;4.93;;;;;;;10.28;73.97;99936.94;5279764;28;20048;-70
2022/11/10 06:19:05;;;;;;;8.90;4.75;;;;;;;10.22;73.97;99939.19;5283345;28;20686;-71
2022/11/10 06:22:14;;;;;;;14.88;4.30;;;;;;;10.25;73.08;99938.94;5288224;28;20691;-70
2022/11/10 06:25:23;;;;;;;15.43;5.18;;;;;;;10.05;73.21;99951.91;5286952;28;20531;-69
2022/11/10 06:28:32;;;;;;;10.82;4.53;;;;;;;9.97;73.63;99954.31;5278593;28;20097;-70
2022/11/10 06:31:41;;;;;;;14.68;5.13;;;;;;;9.92;73.30;99971.50;5289245;28;20139;-73
2022/11/10 06:34:50;;;;;;;9.20;4.03;;;;;;;9.84;73.87;99962.34;5282544;28;20076;-72
2022/11/10 06:38:04;;;;;;;15.57;4.45;;;;;;;9.87;73.46;99987.78;5279451;28;20806;-75
2022/11/10 06:41:13;;;;;;;16.58;5.20;;;;;;;9.78;73.29;99981.34;5281149;28;20059;-76
2022/11/10 06:44:22;;;;;;;16.88;5.20;;;;;;;9.97;73.42;99993.22;5289704;28;20466;-72
2022/11/10 06:47:31;;;;;;;10.27;4.88;;;;;;;9.88;73.13;100003.53;5281610;28;20086;-76
2022/11/10 06:50:40;;;;;;;9.30;5.22;;;;;;;10.00;73.36;100008.84;5286408;28;20055;-76
2022/11/10 06:53:49;;;;;;;15.38;4.97;;;;;;;9.97;73.54;100014.41;5270944;28;20056;-73
2022/11/10 06:56:57;;;;;;;16.10;4.85;;;;;;;9.97;72.94;100028.50;5259849;28;20105;-74
2022/11/10 07:00:07;;;;;;;19.63;5.22;;;;;;;10.07;73.21;100028.66;5250212;28;20055;-72
2022/11/10 07:03:16;;;;;;;11.57;4.88;;;;;;;10.15;73.62;100030.72;5241058;28;20047;-71
2022/11/10 07:06:26;;;;;;;13.82;5.07;;;;;;;10.15;73.26;100038.69;5240230;28;20160;-73
2022/11/10 07:09:35;;;;;;;12.82;6.15;;;;;;;10.34;73.00;100061.06;5238813;28;20127;-71
2022/11/10 07:12:44;;;;;;;19.15;6.95;;;;;;;10.49;73.85;100066.16;5243150;28;20056;-72
2022/11/10 07:15:53;;;;;;;16.58;6.80;;;;;;;10.58;73.63;100074.25;5238146;28;20059;-71
2022/11/10 07:19:02;;;;;;;14.15;6.80;;;;;;;10.66;73.10;100076.34;5235604;28;20127;-71
2022/11/10 07:22:11;;;;;;;19.27;7.32;;;;;;;10.75;72.89;100080.91;5241488;28;20055;-72
2022/11/10 07:25:20;;;;;;;19.90;7.88;;;;;;;10.80;73.11;100083.22;5242332;28;20604;-72
2022/11/10 07:28:29;;;;;;;18.70;7.38;;;;;;;10.82;72.70;100086.59;5241272;28;20483;-71
2022/11/10 07:31:38;;;;;;;24.65;8.43;;;;;;;10.86;73.58;100090.72;5245388;28;20146;-71
2022/11/10 07:34:47;;;;;;;27.98;8.85;;;;;;;10.98;73.77;100097.69;5243337;28;20119;-74
2022/11/10 07:37:57;;;;;;;14.77;7.53;;;;;;;10.88;73.04;100091.41;5242996;28;20139;-71
2022/11/10 07:41:06;;;;;;;16.48;7.53;;;;;;;10.95;72.96;100102.41;5242831;28;20044;-72
2022/11/10 07:44:15;;;;;;;19.83;7.40;;;;;;;10.95;73.09;100108.56;5242901;28;20098;-74
2022/11/10 07:47:24;;;;;;;16.00;7.00;;;;;;;10.97;73.40;100103.97;5242384;28;20047;-72
2022/11/10 07:50:33;;;;;;;24.85;7.03;;;;;;;11.00;73.08;100116.19;5239271;28;20961;-74
2022/11/10 07:53:42;;;;;;;15.13;6.65;;;;;;;11.03;73.42;100116.78;5247410;28;20101;-78
2022/11/10 07:56:52;;;;;;;11.27;6.45;;;;;;;11.03;72.38;100122.09;5242941;28;20105;-74
2022/11/10 08:00:02;;;;;;;16.02;6.28;;;;;;;11.20;72.02;100118.13;5242915;28;20052;-72
2022/11/10 08:03:13;;;;;;;14.90;7.10;;;;;;;11.80;71.94;100137.25;5239105;28;20060;-72
2022/11/10 08:06:22;;;;;;;13.27;6.22;;;;;;;12.40;70.53;100141.22;5236689;28;20055;-71
2022/11/10 08:09:31;;;;;;;10.45;5.63;;;;;;;12.92;68.91;100141.31;5238431;28;20055;-72
2022/11/10 08:12:40;;;;;;;13.15;5.65;;;;;;;13.95;66.25;100143.88;5236761;28;20052;-72
2022/11/10 08:15:49;;;;;;;14.25;5.13;;;;;;;14.91;65.44;100144.06;5245975;28;20123;-75
2022/11/10 08:18:58;;;;;;;12.63;3.88;;;;;;;14.88;63.25;100152.34;5241935;28;20079;-72
2022/11/10 08:22:07;;;;;;;10.00;3.83;;;;;;;15.43;61.84;100147.97;5239196;28;20055;-71
2022/11/10 08:25:16;;;;;;;8.80;3.47;;;;;;;15.90;61.88;100147.91;5240470;28;20071;-72
2022/11/10 08:28:26;;;;;;;11.70;2.90;;;;;;;15.77;58.73;100143.91;5238531;28;20056;-73
2022/11/10 08:31:37;;;;;;;7.85;3.15;;;;;;;16.47;58.03;100160.19;5244793;28;20051;-72
2022/11/10 08:34:46;;;;;;;10.77;2.63;;;;;;;17.01;57.83;100152.94;5240550;28;20048;-71
2022/11/10 08:37:55;;;;;;;8.98;3.35;;;;;;;17.05;56.33;100159.66;5240586;28;20047;-73
2022/11/10 08:41:04;;;;;;;6.95;2.88;;;;;;;17.52;56.21;100164.66;5235715;28;20150;-71
2022/11/10 08:44:13;;;;;;;8.07;2.97;;;;;;;17.33;54.47;100166.56;5236119;28;20108;-72
2022/11/10 08:47:28;;;;;;;10.35;3.28;;;;;;;17.34;55.08;100170.91;5240217;28;20060;-72
2022/11/10 08:50:38;;;;;;;5.85;2.55;;;;;;;17.83;54.04;100175.72;5239091;28;20048;-71
2022/11/10 08:53:47;;;;;;;6.18;2.67;;;;;;;17.83;55.04;100178.41;5237254;28;20093;-76
2022/11/10 08:56:56;;;;;;;7.40;2.90;;;;;;;18.25;51.97;100174.84;5238529;28;20105;-71
2022/11/10 09:00:05;;;;;;;8.13;2.90;;;;;;;18.14;50.58;100167.09;5238025;28;20055;-74
2022/11/10 09:03:25;;;;;;;16.08;3.92;;;;;;;17.62;54.16;100197.56;5234078;28;20054;-73
2022/11/10 09:06:34;;;;;;;11.70;3.38;;;;;;;18.12;53.30;100201.31;5240557;28;20079;-73
2022/11/10 09:09:43;;;;;;;5.00;2.60;;;;;;;16.92;55.21;100197.63;5239349;28;20558;-74
2022/11/10 09:13:14;;;;;;;10.85;3.45;;;;;;;15.14;59.56;100180.13;5244915;28;20059;-71
2022/11/10 09:16:23;;;;;;;5.93;2.78;;;;;;;15.25;59.80;100195.13;5247796;28;20464;-72
2022/11/10 09:19:32;;;;;;;7.65;3.10;;;;;;;15.06;61.23;100204.03;5245157;28;20052;-71
2022/11/10 09:22:41;;;;;;;7.35;3.10;;;;;;;15.02;61.17;100189.28;5241864;28;20108;-71
2022/11/10 09:25:52;;;;;;;6.50;2.42;;;;;;;15.10;61.24;100209.91;5246959;28;20105;-73
2022/11/10 09:29:01;;;;;;;10.10;3.28;;;;;;;14.69;61.82;100199.41;5244588;28;20140;-71
2022/11/10 09:32:10;;;;;;;8.13;2.60;;;;;;;14.48;61.37;100226.22;5251056;28;20087;-72
2022/11/10 09:35:19;;;;;;;8.77;2.58;;;;;;;14.23;63.00;100230.25;5253364;28;20128;-71
2022/11/10 09:38:28;;;;;;;7.93;2.60;;;;;;;14.39;62.74;100224.38;5250105;28;20059;-71
2022/11/10 09:41:39;;;;;;;5.57;2.33;;;;;;;14.36;62.82;100234.47;5244474;28;20485;-73
2022/11/10 09:44:58;;;;;;;4.97;2.55;;;;;;;14.46;62.62;100238.84;5247997;28;20120;-72
2022/11/10 09:48:17;;;;;;;11.07;2.83;;;;;;;14.53;62.98;100248.00;5251089;28;20048;-73
2022/11/10 09:51:32;;;;;;;4.72;2.30;;;;;;;14.44;63.33;100253.34;5250185;28;20150;-75
2022/11/10 09:54:52;;;;;;;8.80;2.80;;;;;;;14.36;62.95;100261.16;5253039;28;20059;-74
2022/11/10 09:58:02;;;;;;;11.68;2.50;;;;;;;14.25;63.06;100244.28;5251880;28;20056;-72
2022/11/10 10:01:26;;;;;;;8.63;2.22;;;;;;;14.18;63.50;100258.31;5245214;28;20552;-74
2022/11/10 10:05:05;;;;;;;11.75;3.15;;;;;;;14.29;63.26;100256.38;5246430;28;20614;-75
2022/11/10 10:08:30;;;;;;;13.02;3.00;;;;;;;14.07;63.61;100243.25;5245460;28;20887;-75
2022/11/10 10:11:58;;;;;;;10.90;2.40;;;;;;;14.25;64.14;100246.13;5241826;28;20414;-75
2022/11/10 10:15:26;;;;;;;10.77;2.90;;;;;;;14.48;64.32;100255.56;5237820;28;20094;-73
2022/11/10 10:19:00;;;;;;;8.93;2.40;;;;;;;14.50;61.75;100259.00;5237000;28;20048;-70
2022/11/10 10:22:31;;;;;;;9.18;2.10;;;;;;;14.47;62.76;100253.91;5242640;28;20047;-70
2022/11/10 10:25:44;;;;;;;11.45;2.08;;;;;;;14.51;62.65;100251.81;5250250;28;20550;-73
2022/11/10 10:28:54;;;;;;;7.00;1.77;;;;;;;14.46;62.11;100252.19;5245950;28;20409;-74
2022/11/10 10:32:03;;;;;;;9.50;1.95;;;;;;;14.50;62.10;100259.00;5245178;28;20072;-75
2022/11/10 10:35:14;;;;;;;8.13;2.17;;;;;;;14.63;62.94;100266.72;5250470;28;20058;-75
2022/11/10 10:38:34;;;;;;;10.27;2.08;;;;;;;14.63;62.58;100265.88;5255077;28;20052;-72
2022/11/10 10:41:44;;;;;;;8.18;1.73;;;;;;;14.52;62.34;100266.84;5257489;28;20104;-72
2022/11/10 10:45:23;;;;;;;5.90;1.38;;;;;;;14.64;61.44;100260.41;5251480;28;20176;-73
2022/11/10 10:48:33;;;;;;;3.45;1.27;;;;;;;14.61;61.29;100243.84;5227209;22;20061;-73
2022/11/10 10:51:43;;;;;;;7.50;1.63;;;;;;;14.65;60.80;100253.25;5208455;28;20045;-73
2022/11/10 10:55:00;;;;;;;6.05;1.55;;;;;;;14.90;61.01;100235.81;5208610;28;20129;-73
2022/11/10 10:58:25;;;;;;;6.93;1.52;;;;;;;14.77;62.13;100226.28;5212253;28;20056;-73
2022/11/10 11:01:39;;;;;;;11.80;1.58;;;;;;;14.96;61.25;100243.25;5218110;28;20060;-74
2022/11/10 11:05:07;;;;;;;5.65;1.60;;;;;;;14.87;60.21;100239.63;5217843;28;20088;-72
2022/11/10 11:08:17;;;;;;;13.32;2.40;;;;;;;14.99;60.92;100254.50;5215861;28;20064;-72
2022/11/10 11:11:26;;;;;;;7.40;1.50;;;;;;;15.40;60.27;100255.16;5215511;28;20057;-72
2022/11/10 11:14:35;;;;;;;10.00;1.50;;;;;;;15.56;59.82;100251.88;5218266;28;20048;-74
2022/11/10 11:17:58;;;;;;;10.57;1.58;;;;;;;15.26;59.13;100247.59;5217957;28;20110;-72
2022/11/10 11:21:27;;;;;;;10.15;1.27;;;;;;;15.49;59.19;100240.91;5213385;28;20105;-74
2022/11/10 11:24:42;;;;;;;6.80;1.60;;;;;;;15.17;60.84;100246.63;5221198;28;20068;-73
2022/11/10 11:28:10;;;;;;;2.22;1.13;;;;;;;15.01;59.40;100247.19;5217089;28;20124;-74
2022/11/10 11:31:57;;;;;;;6.10;1.30;;;;;;;15.63;57.56;100253.00;5213694;28;20700;-72
2022/11/10 11:35:18;;;;;;;7.53;1.25;;;;;;;15.89;58.08;100247.00;5218884;28;20103;-72
2022/11/10 11:38:43;;;;;;;7.45;1.15;;;;;;;15.78;55.39;100245.38;5213495;28;20151;-73
2022/11/10 11:42:12;;;;;;;8.15;1.42;;;;;;;15.66;57.62;100251.84;5217832;28;20078;-72
2022/11/10 11:45:25;;;;;;;5.95;1.17;;;;;;;15.83;57.40;100252.97;5220711;28;20114;-72
2022/11/10 11:49:09;;;;;;;5.30;1.27;;;;;;;16.14;55.72;100250.84;5210868;28;20118;-73
2022/11/10 11:52:21;;;;;;;7.13;1.07;;;;;;;16.25;57.01;100253.31;5211094;28;20108;-73
2022/11/10 11:55:35;;;;;;;5.68;0.93;;;;;;;15.98;56.74;100251.47;5219487;28;20102;-72
2022/11/10 11:59:14;;;;;;;2.40;0.85;;;;;;;16.00;58.49;100238.81;5211501;28;20118;-72
2022/11/10 12:02:47;;;;;;;5.15;0.98;;;;;;;16.07;54.68;100239.06;5220795;28;20052;-73
2022/11/10 12:06:43;;;;;;;8.65;0.80;;;;;;;16.25;54.92;100241.75;5219432;28;20143;-72
2022/11/10 12:10:30;;;;;;;5.15;0.93;;;;;;;16.24;55.57;100240.91;5194536;28;20053;-71
2022/11/10 12:14:14;;;;;;;3.15;0.90;;;;;;;16.08;56.30;100235.38;5203104;28;20105;-71
2022/11/10 12:17:41;;;;;;;9.77;1.23;;;;;;;16.03;56.48;100232.31;5201239;28;20053;-72
2022/11/10 12:21:01;;;;;;;4.50;1.00;;;;;;;16.09;55.63;100248.63;5198385;28;20060;-71
2022/11/10 12:24:18;;;;;;;10.57;0.88;;;;;;;16.12;54.81;100239.44;5196793;28;20163;-72
2022/11/10 12:27:39;;;;;;;5.32;1.10;;;;;;;15.96;53.26;100216.84;5199854;28;20061;-71
2022/11/10 12:30:52;;;;;;;5.80;0.90;;;;;;;16.07;53.12;100237.22;5200959;28;20079;-72
2022/11/10 12:34:29;;;;;;;2.63;0.75;;;;;;;16.11;53.07;100227.06;5205260;28;21360;-71
2022/11/10 12:37:51;;;;;;;2.65;0.77;;;;;;;16.01;54.23;100235.13;5194338;28;20466;-72
2022/11/10 12:41:14;;;;;;;8.20;1.38;;;;;;;16.05;53.69;100239.19;5203037;28;20057;-72
2022/11/10 12:44:34;;;;;;;6.50;0.70;;;;;;;15.84;53.18;100212.69;5194395;28;20589;-72
2022/11/10 12:47:45;;;;;;;4.05;1.15;;;;;;;15.81;55.00;100225.50;5193572;28;20122;-72
2022/11/10 12:51:12;;;;;;;6.35;1.05;;;;;;;15.73;55.17;100218.25;5195723;28;20041;-72
2022/11/10 12:54:25;;;;;;;5.47;0.80;;;;;;;15.84;54.98;100238.59;5201852;28;20048;-72
2022/11/10 12:57:36;;;;;;;7.78;0.90;;;;;;;15.56;54.35;100241.19;5197730;28;20728;-71
2022/11/10 13:01:11;;;;;;;1.67;0.80;;;;;;;15.82;55.28;100233.38;5199801;28;20110;-72
2022/11/10 13:04:19;;;;;;;6.78;0.65;;;;;;;15.87;53.36;100239.13;5205246;28;20064;-71
2022/11/10 13:07:29;;;;;;;7.93;1.30;;;;;;;15.83;55.32;100236.91;5204361;28;20106;-71
2022/11/10 13:10:49;;;;;;;6.78;1.00;;;;;;;16.13;52.40;100241.13;5204669;28;20841;-71
2022/11/10 13:14:01;;;;;;;2.47;0.80;;;;;;;15.86;55.11;100253.50;5205054;28;20434;-72
2022/11/10 13:17:30;;;;;;;3.65;0.93;;;;;;;16.01;54.13;100253.84;5204470;28;20530;-72
2022/11/10 13:20:53;;;;;;;6.20;1.15;;;;;;;16.03;53.46;100254.56;5201116;28;21613;-72
2022/11/10 13:24:01;;;;;;;2.88;0.70;;;;;;;15.94;55.77;100258.13;5199368;28;20072;-72
2022/11/10 13:27:32;;;;;;;6.13;1.05;;;;;;;15.34;53.07;100242.38;5199530;28;20155;-72
2022/11/10 13:30:44;;;;;;;3.22;0.93;;;;;;;15.78;53.36;100247.19;5197527;28;20060;-71
2022/11/10 13:34:06;;;;;;;4.60;1.00;;;;;;;15.74;53.32;100250.16;5198958;28;20061;-72
2022/11/10 13:37:33;;;;;;;2.97;1.10;;;;;;;15.81;54.78;100249.59;5198137;28;20057;-71
2022/11/10 13:40:43;;;;;;;4.78;0.77;;;;;;;15.62;53.40;100250.47;5196738;28;20102;-71
2022/11/10 13:43:54;;;;;;;3.85;0.70;;;;;;;15.71;54.26;100253.13;5196632;28;20154;-72
2022/11/10 13:47:06;;;;;;;8.70;1.63;;;;;;;15.33;54.54;100259.41;5209899;28;20099;-71
2022/11/10 13:50:54;;;;;;;4.50;1.30;;;;;;;15.51;54.99;100259.50;5218018;28;20076;-71
2022/11/10 13:54:18;;;;;;;4.25;0.80;;;;;;;15.57;54.36;100258.09;5220659;28;20106;-71
2022/11/10 13:57:33;;;;;;;4.93;0.77;;;;;;;15.61;55.23;100262.16;5199586;28;20077;-71
2022/11/10 14:00:48;;;;;;;6.68;1.05;;;;;;;15.50;54.67;100271.19;5199360;28;20057;-71
2022/11/10 14:04:00;;;;;;;4.93;0.80;;;;;;;15.60;53.68;100265.81;5208511;28;20122;-71
2022/11/10 14:07:18;;;;;;;6.00;0.60;;;;;;;15.68;54.18;100268.63;5219476;28;20504;-71
2022/11/10 14:10:46;;;;;;;4.95;0.90;;;;;;;15.48;54.58;100274.00;5218040;28;20102;-71
2022/11/10 14:14:01;;;;;;;4.60;1.17;;;;;;;15.66;55.21;100271.47;5225289;28;20059;-71
2022/11/10 14:17:22;;;;;;;;;;;;;;;15.52;56.03;100278.06;5225529;28;20084;-71
2022/11/10 14:20:39;;;;;;;2.33;0.88;;;;;;;15.58;55.38;100284.66;5223469;28;19924;-71
2022/11/10 14:24:03;;;;;;;3.70;0.93;;;;;;;15.44;55.24;100279.78;5224312;28;20059;-71
2022/11/10 14:27:14;;;;;;;5.28;0.90;;;;;;;15.56;55.98;100283.09;5221795;28;20064;-71
2022/11/10 14:30:25;;;;;;;3.67;0.77;;;;;;;15.41;57.05;100280.91;5220538;28;20140;-71
2022/11/10 14:33:34;;;;;;;8.55;1.30;;;;;;;15.31;57.38;100284.56;5223103;28;20518;-71
2022/11/10 14:36:54;;;;;;;5.90;0.90;;;;;;;15.27;57.21;100284.03;5222870;28;20075;-71
2022/11/10 14:40:11;;;;;;;8.30;1.40;;;;;;;15.26;55.71;100268.97;5223206;28;20563;-71
2022/11/10 14:43:32;;;;;;;1.85;0.60;;;;;;;15.29;56.43;100298.06;5223580;28;20474;-71
2022/11/10 14:46:41;;;;;;;6.05;0.93;;;;;;;15.33;55.02;100294.16;5221764;28;20079;-71
2022/11/10 14:50:12;;;;;;;4.45;1.00;;;;;;;15.18;56.64;100296.41;5219757;28;20106;-71
2022/11/10 14:53:28;;;;;;;4.90;1.08;;;;;;;15.10;56.06;100311.44;5222663;28;20053;-71
2022/11/10 14:56:41;;;;;;;4.13;0.77;;;;;;;15.05;56.29;100306.53;5222682;28;20106;-71
2022/11/10 14:59:51;;;;;;;9.80;1.25;;;;;;;14.98;57.89;100321.44;5217521;28;20096;-71
2022/11/10 15:03:00;;;;;;;4.80;0.90;;;;;;;14.96;58.15;100326.88;5220391;28;20107;-71
2022/11/10 15:06:11;;;;;;;5.43;0.93;;;;;;;14.71;60.31;100317.59;5221626;28;20075;-71
2022/11/10 15:09:29;;;;;;;3.47;0.98;;;;;;;14.55;62.32;100326.13;5222762;28;20098;-71
2022/11/10 15:12:39;;;;;;;7.13;1.10;;;;;;;14.48;60.62;100330.31;5220597;28;20239;-71
2022/11/10 15:15:52;;;;;;;6.18;1.20;;;;;;;14.31;61.43;100328.28;5218608;28;20174;-71
2022/11/10 15:19:30;;;;;;;10.07;2.28;;;;;;;14.13;62.11;100337.88;5219911;28;20098;-71
2022/11/10 15:22:39;;;;;;;3.28;1.30;;;;;;;14.03;63.07;100332.50;5218641;28;20068;-71
2022/11/10 15:25:48;;;;;;;4.93;1.20;;;;;;;13.89;62.83;100332.88;5220484;28;20091;-71
2022/11/10 15:29:02;;;;;;;5.05;1.23;;;;;;;13.78;63.47;100347.13;5219966;28;20142;-72
2022/11/10 15:32:19;;;;;;;6.95;2.30;;;;;;;13.67;62.85;100337.34;5219752;28;20480;-70
2022/11/10 15:35:30;;;;;;;6.10;1.73;;;;;;;13.61;63.49;100354.75;5220594;28;20053;-70
2022/11/10 15:38:40;;;;;;;4.70;1.33;;;;;;;13.40;64.32;100327.22;5220213;28;20048;-71
2022/11/10 15:41:56;;;;;;;4.15;1.48;;;;;;;13.38;63.67;100351.34;5218298;28;20121;-70
2022/11/10 15:45:05;;;;;;;6.80;1.40;;;;;;;13.30;64.60;100359.13;5219727;28;20060;-71
2022/11/10 15:48:16;;;;;;;5.45;1.17;;;;;;;13.13;64.96;100357.00;5219850;28;20056;-71